Strona główna
METAR-TAF:

METAR-TAF

Lotnisko :

Port lotniczy Aleksandria

Aleksandria-El Nouzha, Egipt

Szerokość geograficzna: 31-12N, Długość geograficzna: 029-57E, wysokość: -2 m

Aktualna obserwacja pogody

Raport powstał 1 godzina i 26 minut temu, godzina 23:00 UTC
Wiatr 10 kt od wschód
Temperatura 21°C
Wilgotność 60%
Ciśnienie 1006 hPa
Widzialność 10 km lub więcej
Brak chmur poniżej 1500 m i brak chmur cumulonimbus

METAR: HEAX 042300Z 09010KT CAVOK 21/13 Q1006 NOSIG

czas: 02:26 (00:26 UTC)

Prognoza

Raport powstał 45 minut temu, godzina 23:41 UTC
Prognoza ważna od 05 godzina 00 UTC do 06 godzina 06 UTC
Wiatr 13 kt od południe
Widzialność: 6000 m
Przejściowo
od 05 godzina 00 UTC do 05 godzina 03 UTC
Widzialność: 3000 m
piasek
Stopniowe zmiany
od 05 godzina 04 UTC do 05 godzina 06 UTC
Wiatr 13 kt od zachodnio-północny zachód
Widzialność 10 km lub więcej
Brak chmur poniżej 1500 m i brak chmur cumulonimbus

TAF: HEAX 042341Z 0500/0606 19013KT 6000 NSC TEMPO 0500/0503 3000 SA BECMG 0504/0506 30013KT CAVOK

Obserwacja i prognoza pogody dla ponad 4000 lotnisk (raport METAR i TAF).

Dostępne stacje oznaczono żółtymi i czerwonymi punktami na mapie.

Najedź kursorem aby zobaczyć nazwę stacji.

Kliknij aby zobaczyć obserwacje i prognozy pogody.

Aby zmienić mapę: kliknij na zielony przycisk z czarnym krzyżykiem, aby powiększyć; na zielony przycisk z myślnikiem, aby pomniejszyć; na zielone strzałki, aby przejść do map sąsiednich.


METAR-TAF: